sensor_id;sensor_type;location;lat;lon;timestamp;pressure;altitude;pressure_sealevel;temperature;humidity
5500;BME280;2772;42.700;23.304;2022-09-17T00:01:34;94260.63;;;19.53;100.00
5500;BME280;2772;42.700;23.304;2022-09-17T00:04:02;94247.09;;;19.56;100.00
5500;BME280;2772;42.700;23.304;2022-09-17T00:06:31;94241.69;;;19.49;100.00
5500;BME280;2772;42.700;23.304;2022-09-17T00:08:59;94246.34;;;19.59;100.00
5500;BME280;2772;42.700;23.304;2022-09-17T00:11:27;94243.25;;;19.57;100.00
5500;BME280;2772;42.700;23.304;2022-09-17T00:13:56;94228.56;;;19.48;100.00
5500;BME280;2772;42.700;23.304;2022-09-17T00:16:25;94226.66;;;19.62;100.00
5500;BME280;2772;42.700;23.304;2022-09-17T00:18:53;94225.47;;;19.56;100.00
5500;BME280;2772;42.700;23.304;2022-09-17T00:21:22;94212.75;;;19.60;100.00
5500;BME280;2772;42.700;23.304;2022-09-17T00:23:52;94223.19;;;19.65;100.00
5500;BME280;2772;42.700;23.304;2022-09-17T00:26:19;94217.00;;;19.65;100.00
5500;BME280;2772;42.700;23.304;2022-09-17T00:28:48;94211.22;;;19.63;100.00
5500;BME280;2772;42.700;23.304;2022-09-17T00:31:15;94223.56;;;19.67;100.00
5500;BME280;2772;42.700;23.304;2022-09-17T00:33:42;94229.75;;;19.64;100.00
5500;BME280;2772;42.700;23.304;2022-09-17T00:36:09;94225.88;;;19.69;100.00
5500;BME280;2772;42.700;23.304;2022-09-17T00:38:37;94228.19;;;19.70;100.00
5500;BME280;2772;42.700;23.304;2022-09-17T00:41:05;94240.94;;;19.66;100.00
5500;BME280;2772;42.700;23.304;2022-09-17T00:43:38;94240.56;;;19.71;100.00
5500;BME280;2772;42.700;23.304;2022-09-17T00:46:13;94247.13;;;19.70;100.00
5500;BME280;2772;42.700;23.304;2022-09-17T00:48:42;94238.63;;;19.61;100.00
5500;BME280;2772;42.700;23.304;2022-09-17T00:51:10;94250.56;;;19.53;100.00
5500;BME280;2772;42.700;23.304;2022-09-17T00:53:38;94259.47;;;19.61;100.00
5500;BME280;2772;42.700;23.304;2022-09-17T00:56:10;94266.78;;;19.57;100.00
5500;BME280;2772;42.700;23.304;2022-09-17T00:58:40;94255.22;;;19.60;100.00
5500;BME280;2772;42.700;23.304;2022-09-17T01:01:07;94254.84;;;19.58;100.00
5500;BME280;2772;42.700;23.304;2022-09-17T01:03:33;94262.16;;;19.64;100.00
5500;BME280;2772;42.700;23.304;2022-09-17T01:06:07;94256.00;;;19.60;100.00
5500;BME280;2772;42.700;23.304;2022-09-17T01:08:48;94246.34;;;19.59;100.00
5500;BME280;2772;42.700;23.304;2022-09-17T01:11:34;94247.84;;;19.53;100.00
5500;BME280;2772;42.700;23.304;2022-09-17T01:14:18;94237.84;;;19.47;100.00
5500;BME280;2772;42.700;23.304;2022-09-17T01:16:54;94226.22;;;19.43;100.00
5500;BME280;2772;42.700;23.304;2022-09-17T01:19:49;94224.31;;;19.43;100.00
5500;BME280;2772;42.700;23.304;2022-09-17T01:22:26;94240.13;;;19.45;100.00
5500;BME280;2772;42.700;23.304;2022-09-17T01:25:20;94252.09;;;19.47;100.00
5500;BME280;2772;42.700;23.304;2022-09-17T01:31:06;94229.31;;;19.41;100.00
5500;BME280;2772;42.700;23.304;2022-09-17T01:33:46;94228.56;;;19.37;100.00
5500;BME280;2772;42.700;23.304;2022-09-17T01:36:21;94209.25;;;19.32;100.00
5500;BME280;2772;42.700;23.304;2022-09-17T01:38:55;94202.69;;;19.36;100.00
5500;BME280;2772;42.700;23.304;2022-09-17T01:41:31;94193.03;;;19.35;100.00
5500;BME280;2772;42.700;23.304;2022-09-17T01:44:04;94195.72;;;19.32;100.00
5500;BME280;2772;42.700;23.304;2022-09-17T01:46:37;94176.44;;;19.33;100.00
5500;BME280;2772;42.700;23.304;2022-09-17T01:49:06;94187.97;;;19.27;100.00
5500;BME280;2772;42.700;23.304;2022-09-17T01:51:36;94232.78;;;19.28;100.00
5500;BME280;2772;42.700;23.304;2022-09-17T01:54:08;94235.75;;;19.09;100.00
5500;BME280;2772;42.700;23.304;2022-09-17T01:56:41;94228.38;;;18.98;100.00
5500;BME280;2772;42.700;23.304;2022-09-17T01:59:14;94227.28;;;19.10;100.00
5500;BME280;2772;42.700;23.304;2022-09-17T02:01:45;94221.50;;;19.12;100.00
5500;BME280;2772;42.700;23.304;2022-09-17T02:04:16;94203.38;;;19.12;100.00
5500;BME280;2772;42.700;23.304;2022-09-17T02:06:50;94192.97;;;19.14;100.00
5500;BME280;2772;42.700;23.304;2022-09-17T02:09:22;94157.88;;;19.14;100.00
5500;BME280;2772;42.700;23.304;2022-09-17T02:11:55;94150.94;;;19.06;100.00
5500;BME280;2772;42.700;23.304;2022-09-17T02:14:28;94127.81;;;19.12;100.00
5500;BME280;2772;42.700;23.304;2022-09-17T02:17:02;94091.53;;;19.10;100.00
5500;BME280;2772;42.700;23.304;2022-09-17T02:19:34;94098.88;;;19.09;100.00
5500;BME280;2772;42.700;23.304;2022-09-17T02:22:11;94095.78;;;19.07;100.00
5500;BME280;2772;42.700;23.304;2022-09-17T02:24:43;94112.00;;;19.11;100.00
5500;BME280;2772;42.700;23.304;2022-09-17T02:27:19;94093.84;;;19.04;100.00
5500;BME280;2772;42.700;23.304;2022-09-17T02:29:48;94111.56;;;19.02;100.00
5500;BME280;2772;42.700;23.304;2022-09-17T02:32:17;94105.38;;;18.76;100.00
5500;BME280;2772;42.700;23.304;2022-09-17T02:34:45;94116.91;;;18.70;100.00
5500;BME280;2772;42.700;23.304;2022-09-17T02:37:12;94133.03;;;18.59;100.00
5500;BME280;2772;42.700;23.304;2022-09-17T02:39:40;94147.66;;;18.55;100.00
5500;BME280;2772;42.700;23.304;2022-09-17T02:42:16;94119.19;;;18.61;100.00
5500;BME280;2772;42.700;23.304;2022-09-17T02:44:52;94104.91;;;18.53;100.00
5500;BME280;2772;42.700;23.304;2022-09-17T02:47:33;94096.44;;;18.51;100.00
5500;BME280;2772;42.700;23.304;2022-09-17T02:50:17;94077.53;;;18.48;100.00
5500;BME280;2772;42.700;23.304;2022-09-17T02:52:57;94101.81;;;18.51;100.00
5500;BME280;2772;42.700;23.304;2022-09-17T02:55:31;94094.53;;;18.59;100.00
5500;BME280;2772;42.700;23.304;2022-09-17T02:58:10;94077.56;;;18.62;100.00
5500;BME280;2772;42.700;23.304;2022-09-17T03:00:40;94066.03;;;18.65;100.00
5500;BME280;2772;42.700;23.304;2022-09-17T03:03:11;94059.06;;;18.67;100.00
5500;BME280;2772;42.700;23.304;2022-09-17T03:05:41;94084.16;;;18.75;100.00
5500;BME280;2772;42.700;23.304;2022-09-17T03:08:11;94071.03;;;18.66;100.00
5500;BME280;2772;42.700;23.304;2022-09-17T03:10:39;94072.19;;;18.69;100.00
5500;BME280;2772;42.700;23.304;2022-09-17T03:13:06;94084.16;;;18.78;100.00
5500;BME280;2772;42.700;23.304;2022-09-17T03:15:33;94102.28;;;18.78;100.00
5500;BME280;2772;42.700;23.304;2022-09-17T03:17:59;94091.88;;;18.83;100.00
5500;BME280;2772;42.700;23.304;2022-09-17T03:20:28;94084.56;;;18.87;100.00
5500;BME280;2772;42.700;23.304;2022-09-17T03:22:54;94067.63;;;18.90;100.00
5500;BME280;2772;42.700;23.304;2022-09-17T03:25:21;94067.22;;;18.88;100.00
5500;BME280;2772;42.700;23.304;2022-09-17T03:27:48;94041.38;;;18.87;100.00
5500;BME280;2772;42.700;23.304;2022-09-17T03:30:15;94057.19;;;18.92;100.00
5500;BME280;2772;42.700;23.304;2022-09-17T03:32:41;94052.94;;;18.84;100.00
5500;BME280;2772;42.700;23.304;2022-09-17T03:35:08;94046.03;;;18.87;100.00
5500;BME280;2772;42.700;23.304;2022-09-17T03:37:36;94054.13;;;18.94;100.00
5500;BME280;2772;42.700;23.304;2022-09-17T03:40:04;94041.00;;;18.85;100.00
5500;BME280;2772;42.700;23.304;2022-09-17T03:42:31;94041.41;;;18.94;100.00
5500;BME280;2772;42.700;23.304;2022-09-17T03:44:58;94070.31;;;18.87;100.00
5500;BME280;2772;42.700;23.304;2022-09-17T03:47:25;94033.69;;;18.89;100.00
5500;BME280;2772;42.700;23.304;2022-09-17T03:49:51;94032.16;;;18.92;100.00
5500;BME280;2772;42.700;23.304;2022-09-17T03:52:18;94048.34;;;18.92;100.00
5500;BME280;2772;42.700;23.304;2022-09-17T03:54:46;94058.34;;;18.81;100.00
5500;BME280;2772;42.700;23.304;2022-09-17T03:57:13;94032.50;;;18.66;100.00
5500;BME280;2772;42.700;23.304;2022-09-17T03:59:41;94054.50;;;18.82;100.00
5500;BME280;2772;42.700;23.304;2022-09-17T04:02:08;94056.78;;;18.80;100.00
5500;BME280;2772;42.700;23.304;2022-09-17T04:04:34;94060.66;;;18.86;100.00
5500;BME280;2772;42.700;23.304;2022-09-17T04:07:01;94068.75;;;18.86;100.00
5500;BME280;2772;42.700;23.304;2022-09-17T04:09:28;94064.53;;;18.92;100.00
5500;BME280;2772;42.700;23.304;2022-09-17T04:11:56;94072.22;;;18.97;100.00
5500;BME280;2772;42.700;23.304;2022-09-17T04:14:23;94082.25;;;19.00;100.00
5500;BME280;2772;42.700;23.304;2022-09-17T04:16:50;94093.06;;;19.00;100.00
5500;BME280;2772;42.700;23.304;2022-09-17T04:19:17;94115.03;;;18.98;100.00
5500;BME280;2772;42.700;23.304;2022-09-17T04:21:43;94123.94;;;19.06;100.00
5500;BME280;2772;42.700;23.304;2022-09-17T04:24:10;94138.56;;;19.05;100.00
5500;BME280;2772;42.700;23.304;2022-09-17T04:26:37;94137.81;;;19.12;100.00
5500;BME280;2772;42.700;23.304;2022-09-17T04:29:05;94140.13;;;19.06;100.00
5500;BME280;2772;42.700;23.304;2022-09-17T04:31:32;94151.31;;;19.01;100.00
5500;BME280;2772;42.700;23.304;2022-09-17T04:33:59;94155.53;;;19.02;100.00
5500;BME280;2772;42.700;23.304;2022-09-17T04:36:25;94172.13;;;19.08;100.00
5500;BME280;2772;42.700;23.304;2022-09-17T04:38:52;94181.38;;;19.03;100.00
5500;BME280;2772;42.700;23.304;2022-09-17T04:41:19;94195.63;;;19.04;100.00
5500;BME280;2772;42.700;23.304;2022-09-17T04:43:46;94203.00;;;19.10;100.00
5500;BME280;2772;42.700;23.304;2022-09-17T04:46:14;94194.47;;;19.01;100.00
5500;BME280;2772;42.700;23.304;2022-09-17T04:48:41;94193.34;;;19.09;100.00
5500;BME280;2772;42.700;23.304;2022-09-17T04:51:08;94202.22;;;19.10;100.00
5500;BME280;2772;42.700;23.304;2022-09-17T04:53:34;94222.66;;;19.14;100.00
5500;BME280;2772;42.700;23.304;2022-09-17T04:56:03;94236.97;;;19.18;100.00
5500;BME280;2772;42.700;23.304;2022-09-17T04:58:29;94243.53;;;19.24;100.00
5500;BME280;2772;42.700;23.304;2022-09-17T05:00:57;94250.09;;;19.23;100.00
5500;BME280;2772;42.700;23.304;2022-09-17T05:03:25;94245.06;;;19.18;100.00
5500;BME280;2772;42.700;23.304;2022-09-17T05:05:52;94236.56;;;19.27;100.00
5500;BME280;2772;42.700;23.304;2022-09-17T05:08:19;94216.53;;;19.24;100.00
5500;BME280;2772;42.700;23.304;2022-09-17T05:10:49;94211.09;;;19.21;100.00
5500;BME280;2772;42.700;23.304;2022-09-17T05:13:16;94211.53;;;19.26;100.00
5500;BME280;2772;42.700;23.304;2022-09-17T05:15:43;94200.38;;;19.31;100.00
5500;BME280;2772;42.700;23.304;2022-09-17T05:18:10;94199.97;;;19.36;100.00
5500;BME280;2772;42.700;23.304;2022-09-17T05:20:39;94189.97;;;19.37;100.00
5500;BME280;2772;42.700;23.304;2022-09-17T05:23:05;94183.41;;;19.41;100.00
5500;BME280;2772;42.700;23.304;2022-09-17T05:25:32;94167.97;;;19.42;100.00
5500;BME280;2772;42.700;23.304;2022-09-17T05:27:59;94152.53;;;19.46;100.00
5500;BME280;2772;42.700;23.304;2022-09-17T05:30:26;94159.09;;;19.52;100.00
5500;BME280;2772;42.700;23.304;2022-09-17T05:32:59;94171.84;;;19.58;100.00
5500;BME280;2772;42.700;23.304;2022-09-17T05:35:26;94184.59;;;19.65;100.00
5500;BME280;2772;42.700;23.304;2022-09-17T05:37:57;94186.50;;;19.68;100.00
5500;BME280;2772;42.700;23.304;2022-09-17T05:40:25;94192.31;;;19.77;100.00
5500;BME280;2772;42.700;23.304;2022-09-17T05:42:56;94193.84;;;19.74;100.00
5500;BME280;2772;42.700;23.304;2022-09-17T05:45:23;94188.44;;;19.81;100.00
5500;BME280;2772;42.700;23.304;2022-09-17T05:47:53;94198.84;;;19.83;100.00
5500;BME280;2772;42.700;23.304;2022-09-17T05:50:20;94201.56;;;19.86;100.00
5500;BME280;2772;42.700;23.304;2022-09-17T05:52:47;94196.16;;;19.90;100.00
5500;BME280;2772;42.700;23.304;2022-09-17T05:55:15;94184.19;;;19.91;100.00
5500;BME280;2772;42.700;23.304;2022-09-17T05:57:42;94194.63;;;19.92;100.00
5500;BME280;2772;42.700;23.304;2022-09-17T06:00:10;94188.06;;;19.90;100.00
5500;BME280;2772;42.700;23.304;2022-09-17T06:02:37;94179.56;;;19.91;100.00
5500;BME280;2772;42.700;23.304;2022-09-17T06:05:04;94174.94;;;19.92;100.00
5500;BME280;2772;42.700;23.304;2022-09-17T06:07:33;94176.09;;;19.94;100.00
5500;BME280;2772;42.700;23.304;2022-09-17T06:10:01;94193.47;;;19.93;100.00
5500;BME280;2772;42.700;23.304;2022-09-17T06:12:29;94205.84;;;19.87;100.00
5500;BME280;2772;42.700;23.304;2022-09-17T06:14:56;94220.50;;;19.86;100.00
5500;BME280;2772;42.700;23.304;2022-09-17T06:17:23;94258.34;;;19.79;100.00
5500;BME280;2772;42.700;23.304;2022-09-17T06:19:50;94248.25;;;19.66;100.00
5500;BME280;2772;42.700;23.304;2022-09-17T06:22:17;94254.84;;;19.68;100.00
5500;BME280;2772;42.700;23.304;2022-09-17T06:24:45;94248.66;;;19.57;100.00
5500;BME280;2772;42.700;23.304;2022-09-17T06:27:12;94253.69;;;19.59;100.00
5500;BME280;2772;42.700;23.304;2022-09-17T06:29:40;94270.66;;;19.59;100.00
5500;BME280;2772;42.700;23.304;2022-09-17T06:32:07;94279.91;;;19.69;100.00
5500;BME280;2772;42.700;23.304;2022-09-17T06:34:37;94289.59;;;19.70;100.00
5500;BME280;2772;42.700;23.304;2022-09-17T06:37:04;94287.66;;;19.74;100.00
5500;BME280;2772;42.700;23.304;2022-09-17T06:39:31;94290.75;;;19.72;100.00
5500;BME280;2772;42.700;23.304;2022-09-17T06:41:58;94281.09;;;19.71;100.00
5500;BME280;2772;42.700;23.304;2022-09-17T06:44:25;94257.19;;;19.73;100.00
5500;BME280;2772;42.700;23.304;2022-09-17T06:46:53;94265.28;;;19.73;100.00
5500;BME280;2772;42.700;23.304;2022-09-17T06:49:20;94256.41;;;19.73;100.00
5500;BME280;2772;42.700;23.304;2022-09-17T06:51:47;94233.22;;;19.75;100.00
5500;BME280;2772;42.700;23.304;2022-09-17T06:54:15;94232.84;;;19.80;100.00
5500;BME280;2772;42.700;23.304;2022-09-17T06:56:42;94229.78;;;19.85;100.00
5500;BME280;2772;42.700;23.304;2022-09-17T06:59:11;94241.34;;;19.89;100.00
5500;BME280;2772;42.700;23.304;2022-09-17T07:01:37;94232.47;;;19.92;100.00
5500;BME280;2772;42.700;23.304;2022-09-17T07:04:06;94225.91;;;20.00;100.00
5500;BME280;2772;42.700;23.304;2022-09-17T07:06:32;94207.75;;;20.04;100.00
5500;BME280;2772;42.700;23.304;2022-09-17T07:09:00;94195.78;;;20.05;100.00
5500;BME280;2772;42.700;23.304;2022-09-17T07:11:28;94193.81;;;20.13;100.00
5500;BME280;2772;42.700;23.304;2022-09-17T07:13:55;94192.69;;;20.21;100.00
5500;BME280;2772;42.700;23.304;2022-09-17T07:16:22;94186.47;;;20.34;100.00
5500;BME280;2772;42.700;23.304;2022-09-17T07:18:50;94184.50;;;20.45;100.00
5500;BME280;2772;42.700;23.304;2022-09-17T07:21:19;94167.09;;;20.61;100.00
5500;BME280;2772;42.700;23.304;2022-09-17T07:23:45;94150.00;;;20.78;100.00
5500;BME280;2772;42.700;23.304;2022-09-17T07:26:14;94153.06;;;20.83;100.00
5500;BME280;2772;42.700;23.304;2022-09-17T07:28:41;94169.28;;;20.87;100.00
5500;BME280;2772;42.700;23.304;2022-09-17T07:31:09;94203.75;;;20.83;100.00
5500;BME280;2772;42.700;23.304;2022-09-17T07:33:37;94196.03;;;20.78;100.00
5500;BME280;2772;42.700;23.304;2022-09-17T07:36:05;94195.25;;;20.81;100.00
5500;BME280;2772;42.700;23.304;2022-09-17T07:38:33;94190.16;;;20.90;100.00
5500;BME280;2772;42.700;23.304;2022-09-17T07:41:02;94186.69;;;21.00;100.00
5500;BME280;2772;42.700;23.304;2022-09-17T07:43:32;94169.63;;;21.03;100.00
5500;BME280;2772;42.700;23.304;2022-09-17T07:46:00;94164.56;;;21.12;100.00
5500;BME280;2772;42.700;23.304;2022-09-17T07:48:41;94174.13;;;21.30;100.00
5500;BME280;2772;42.700;23.304;2022-09-17T07:51:14;94185.69;;;21.38;100.00
5500;BME280;2772;42.700;23.304;2022-09-17T07:53:42;94192.97;;;21.48;100.00
5500;BME280;2772;42.700;23.304;2022-09-17T07:56:09;94185.16;;;21.57;100.00
5500;BME280;2772;42.700;23.304;2022-09-17T07:58:36;94176.56;;;21.65;100.00
5500;BME280;2772;42.700;23.304;2022-09-17T08:01:05;94180.81;;;21.70;100.00
5500;BME280;2772;42.700;23.304;2022-09-17T08:03:32;94174.94;;;21.85;100.00
5500;BME280;2772;42.700;23.304;2022-09-17T08:06:01;94166.34;;;21.90;100.00
5500;BME280;2772;42.700;23.304;2022-09-17T08:08:29;94163.91;;;22.03;100.00
5500;BME280;2772;42.700;23.304;2022-09-17T08:11:00;94166.59;;;22.07;100.00
5500;BME280;2772;42.700;23.304;2022-09-17T08:13:27;94168.34;;;22.27;100.00
5500;BME280;2772;42.700;23.304;2022-09-17T08:15:57;94167.94;;;22.29;100.00
5500;BME280;2772;42.700;23.304;2022-09-17T08:18:25;94169.00;;;22.38;100.00
5500;BME280;2772;42.700;23.304;2022-09-17T08:20:55;94166.53;;;22.54;100.00
5500;BME280;2772;42.700;23.304;2022-09-17T08:23:23;94174.13;;;22.70;100.00
5500;BME280;2772;42.700;23.304;2022-09-17T08:25:53;94173.22;;;22.80;100.00
5500;BME280;2772;42.700;23.304;2022-09-17T08:28:22;94166.53;;;22.88;100.00
5500;BME280;2772;42.700;23.304;2022-09-17T08:30:50;94169.72;;;23.09;100.00
5500;BME280;2772;42.700;23.304;2022-09-17T08:33:17;94178.09;;;23.22;100.00
5500;BME280;2772;42.700;23.304;2022-09-17T08:35:50;94171.19;;;23.17;100.00
5500;BME280;2772;42.700;23.304;2022-09-17T08:38:16;94165.22;;;23.29;100.00
5500;BME280;2772;42.700;23.304;2022-09-17T08:40:51;94159.66;;;23.40;100.00
5500;BME280;2772;42.700;23.304;2022-09-17T08:43:24;94170.97;;;23.35;100.00
5500;BME280;2772;42.700;23.304;2022-09-17T08:45:52;94166.63;;;23.41;100.00
5500;BME280;2772;42.700;23.304;2022-09-17T08:48:19;94167.72;;;23.43;100.00
5500;BME280;2772;42.700;23.304;2022-09-17T08:50:46;94170.41;;;23.47;100.00
5500;BME280;2772;42.700;23.304;2022-09-17T08:53:25;94176.28;;;23.42;100.00
5500;BME280;2772;42.700;23.304;2022-09-17T08:55:59;94173.16;;;23.43;100.00
5500;BME280;2772;42.700;23.304;2022-09-17T08:58:38;94173.28;;;23.36;100.00
5500;BME280;2772;42.700;23.304;2022-09-17T09:01:16;94177.22;;;23.32;100.00
5500;BME280;2772;42.700;23.304;2022-09-17T09:03:57;94164.19;;;23.20;100.00
5500;BME280;2772;42.700;23.304;2022-09-17T09:06:31;94160.72;;;23.16;100.00
5500;BME280;2772;42.700;23.304;2022-09-17T09:09:00;94176.13;;;22.96;100.00
5500;BME280;2772;42.700;23.304;2022-09-17T09:11:29;94166.94;;;22.86;100.00
5500;BME280;2772;42.700;23.304;2022-09-17T09:14:10;94170.50;;;22.80;100.00
5500;BME280;2772;42.700;23.304;2022-09-17T09:16:40;94181.09;;;22.67;100.00
5500;BME280;2772;42.700;23.304;2022-09-17T09:19:17;94183.06;;;22.67;100.00
5500;BME280;2772;42.700;23.304;2022-09-17T09:21:59;94185.44;;;22.61;100.00
5500;BME280;2772;42.700;23.304;2022-09-17T09:24:34;94183.53;;;22.58;100.00
5500;BME280;2772;42.700;23.304;2022-09-17T09:27:15;94194.50;;;22.51;100.00
5500;BME280;2772;42.700;23.304;2022-09-17T09:29:50;94196.94;;;22.35;100.00
5500;BME280;2772;42.700;23.304;2022-09-17T09:32:30;94217.19;;;22.24;100.00
5500;BME280;2772;42.700;23.304;2022-09-17T09:35:10;94207.50;;;22.26;100.00
5500;BME280;2772;42.700;23.304;2022-09-17T09:37:40;94219.56;;;22.22;100.00
5500;BME280;2772;42.700;23.304;2022-09-17T09:40:22;94218.34;;;22.26;100.00
5500;BME280;2772;42.700;23.304;2022-09-17T09:42:52;94230.44;;;22.18;100.00
5500;BME280;2772;42.700;23.304;2022-09-17T09:45:30;94238.59;;;22.15;100.00
5500;BME280;2772;42.700;23.304;2022-09-17T09:48:04;94240.91;;;22.16;100.00
5500;BME280;2772;42.700;23.304;2022-09-17T09:50:42;94242.13;;;22.12;100.00
5500;BME280;2772;42.700;23.304;2022-09-17T09:53:20;94247.63;;;22.01;100.00
5500;BME280;2772;42.700;23.304;2022-09-17T09:56:16;94252.72;;;21.92;100.00
5500;BME280;2772;42.700;23.304;2022-09-17T09:58:51;94269.38;;;21.90;100.00
5500;BME280;2772;42.700;23.304;2022-09-17T10:01:19;94220.63;;;21.83;100.00
5500;BME280;2772;42.700;23.304;2022-09-17T10:03:49;94207.97;;;21.63;100.00
5500;BME280;2772;42.700;23.304;2022-09-17T10:06:18;94189.06;;;21.56;100.00
5500;BME280;2772;42.700;23.304;2022-09-17T10:09:10;94139.19;;;21.46;100.00
5500;BME280;2772;42.700;23.304;2022-09-17T10:11:38;94135.00;;;21.35;100.00
5500;BME280;2772;42.700;23.304;2022-09-17T10:14:22;94121.25;;;21.08;100.00
5500;BME280;2772;42.700;23.304;2022-09-17T10:17:09;94105.72;;;21.16;100.00
5500;BME280;2772;42.700;23.304;2022-09-17T10:19:37;94094.97;;;21.02;100.00
5500;BME280;2772;42.700;23.304;2022-09-17T10:22:19;94070.66;;;20.91;100.00
5500;BME280;2772;42.700;23.304;2022-09-17T10:24:50;94059.81;;;20.88;100.00
5500;BME280;2772;42.700;23.304;2022-09-17T10:27:20;94067.16;;;20.91;100.00
5500;BME280;2772;42.700;23.304;2022-09-17T10:29:50;94068.00;;;20.81;100.00
5500;BME280;2772;42.700;23.304;2022-09-17T10:32:21;94073.50;;;20.70;100.00
5500;BME280;2772;42.700;23.304;2022-09-17T10:34:59;94089.34;;;20.65;100.00
5500;BME280;2772;42.700;23.304;2022-09-17T10:37:34;94081.25;;;20.65;100.00
5500;BME280;2772;42.700;23.304;2022-09-17T10:40:01;94087.81;;;20.64;100.00
5500;BME280;2772;42.700;23.304;2022-09-17T10:42:49;94065.38;;;20.67;100.00
5500;BME280;2772;42.700;23.304;2022-09-17T10:45:23;94071.91;;;20.76;100.00
5500;BME280;2772;42.700;23.304;2022-09-17T10:47:52;94076.88;;;20.81;100.00
5500;BME280;2772;42.700;23.304;2022-09-17T10:50:22;94067.22;;;20.84;100.00
5500;BME280;2772;42.700;23.304;2022-09-17T10:52:53;94077.25;;;20.90;100.00
5500;BME280;2772;42.700;23.304;2022-09-17T10:55:24;94061.75;;;20.98;100.00
5500;BME280;2772;42.700;23.304;2022-09-17T10:58:16;94067.16;;;20.91;100.00
5500;BME280;2772;42.700;23.304;2022-09-17T11:00:58;94059.41;;;20.93;100.00
5500;BME280;2772;42.700;23.304;2022-09-17T11:03:46;94067.16;;;20.94;100.00
5500;BME280;2772;42.700;23.304;2022-09-17T11:06:41;94074.09;;;21.02;100.00
5500;BME280;2772;42.700;23.304;2022-09-17T11:09:20;94105.28;;;21.24;100.00
5500;BME280;2772;42.700;23.304;2022-09-17T11:11:58;94080.41;;;21.36;100.00
5500;BME280;2772;42.700;23.304;2022-09-17T11:14:44;94104.28;;;21.52;100.00
5500;BME280;2772;42.700;23.304;2022-09-17T11:17:27;94081.06;;;21.54;100.00
5500;BME280;2772;42.700;23.304;2022-09-17T11:20:02;94112.25;;;21.73;100.00
5500;BME280;2772;42.700;23.304;2022-09-17T11:22:38;94105.94;;;21.86;100.00
5500;BME280;2772;42.700;23.304;2022-09-17T11:25:23;94118.19;;;22.02;100.00
5500;BME280;2772;42.700;23.304;2022-09-17T11:28:03;94117.75;;;22.07;100.00
5500;BME280;2772;42.700;23.304;2022-09-17T11:30:38;94111.56;;;22.06;100.00
5500;BME280;2772;42.700;23.304;2022-09-17T11:33:26;94118.06;;;22.16;100.00
5500;BME280;2772;42.700;23.304;2022-09-17T11:36:03;94105.84;;;21.97;100.00
5500;BME280;2772;42.700;23.304;2022-09-17T11:38:37;94096.03;;;22.10;100.00
5500;BME280;2772;42.700;23.304;2022-09-17T11:41:08;94103.88;;;22.01;100.00
5500;BME280;2772;42.700;23.304;2022-09-17T11:43:38;94090.75;;;21.96;100.00
5500;BME280;2772;42.700;23.304;2022-09-17T11:46:09;94083.06;;;21.87;100.00
5500;BME280;2772;42.700;23.304;2022-09-17T11:48:43;94082.41;;;21.76;100.00
5500;BME280;2772;42.700;23.304;2022-09-17T11:51:21;94063.78;;;21.82;100.00
5500;BME280;2772;42.700;23.304;2022-09-17T11:53:51;94056.06;;;21.77;100.00
5500;BME280;2772;42.700;23.304;2022-09-17T11:56:22;94050.72;;;21.70;100.00
5500;BME280;2772;42.700;23.304;2022-09-17T11:58:54;94051.50;;;21.67;100.00
5500;BME280;2772;42.700;23.304;2022-09-17T12:01:26;94048.81;;;21.67;100.00
5500;BME280;2772;42.700;23.304;2022-09-17T12:03:59;94042.22;;;21.64;100.00
5500;BME280;2772;42.700;23.304;2022-09-17T12:06:34;94044.16;;;21.64;100.00
5500;BME280;2772;42.700;23.304;2022-09-17T12:09:05;94035.25;;;21.67;100.00
5500;BME280;2772;42.700;23.304;2022-09-17T12:11:40;94038.28;;;21.72;100.00
5500;BME280;2772;42.700;23.304;2022-09-17T12:14:16;94047.63;;;21.68;100.00
5500;BME280;2772;42.700;23.304;2022-09-17T12:16:48;94048.81;;;21.67;100.00
5500;BME280;2772;42.700;23.304;2022-09-17T12:19:20;94066.53;;;21.75;100.00
5500;BME280;2772;42.700;23.304;2022-09-17T12:21:52;94053.34;;;21.80;100.00
5500;BME280;2772;42.700;23.304;2022-09-17T12:24:21;94051.31;;;21.88;100.00
5500;BME280;2772;42.700;23.304;2022-09-17T12:27:05;94043.59;;;21.86;100.00
5500;BME280;2772;42.700;23.304;2022-09-17T12:29:58;94034.63;;;21.93;100.00
5500;BME280;2772;42.700;23.304;2022-09-17T12:35:52;94035.06;;;21.84;100.00
5500;BME280;2772;42.700;23.304;2022-09-17T12:38:36;94024.72;;;21.76;100.00
5500;BME280;2772;42.700;23.304;2022-09-17T12:41:14;94022.38;;;21.74;100.00
5500;BME280;2772;42.700;23.304;2022-09-17T12:44:05;94008.59;;;21.58;100.00
5500;BME280;2772;42.700;23.304;2022-09-17T12:46:48;94011.97;;;21.69;100.00
5500;BME280;2772;42.700;23.304;2022-09-17T12:49:29;93999.63;;;21.65;100.00
5500;BME280;2772;42.700;23.304;2022-09-17T12:52:03;94001.59;;;21.61;100.00
5500;BME280;2772;42.700;23.304;2022-09-17T12:54:55;94004.44;;;21.47;100.00
5500;BME280;2772;42.700;23.304;2022-09-17T12:57:37;94010.38;;;21.35;100.00
5500;BME280;2772;42.700;23.304;2022-09-17T13:00:10;94001.06;;;21.36;100.00
5500;BME280;2772;42.700;23.304;2022-09-17T13:02:40;93988.69;;;21.35;100.00
5500;BME280;2772;42.700;23.304;2022-09-17T13:08:31;93980.28;;;21.26;100.00
5500;BME280;2772;42.700;23.304;2022-09-17T13:14:11;93977.13;;;21.31;100.00
5500;BME280;2772;42.700;23.304;2022-09-17T13:16:48;93967.09;;;21.28;100.00
5500;BME280;2772;42.700;23.304;2022-09-17T13:19:26;93986.13;;;21.21;100.00
5500;BME280;2772;42.700;23.304;2022-09-17T13:22:00;93982.22;;;21.22;100.00
5500;BME280;2772;42.700;23.304;2022-09-17T13:24:29;93977.25;;;21.17;100.00
5500;BME280;2772;42.700;23.304;2022-09-17T13:27:01;93976.09;;;21.14;100.00
5500;BME280;2772;42.700;23.304;2022-09-17T13:29:56;93977.22;;;21.20;100.00
5500;BME280;2772;42.700;23.304;2022-09-17T13:32:45;93953.44;;;20.98;100.00
5500;BME280;2772;42.700;23.304;2022-09-17T13:35:49;93955.97;;;20.68;100.00
5500;BME280;2772;42.700;23.304;2022-09-17T13:38:17;93944.41;;;20.60;100.00